Time;durP1;ratioP1;P1;durP2;ratioP2;P2;SDS_P1;SDS_P2;PMS_P1;PMS_P2;Temp;Humidity;BMP_temperature;BMP_pressure;BME280_temperature;BME280_humidity;BME280_pressure;Samples;Min_cycle;Max_cycle;Signal;HPM_P1;HPM_P2
2022/11/08 00:03:33;;;;;;;11.43;3.13;;;;;;;;;;5072464;28;20409;-67
2022/11/08 00:14:14;;;;;;;10.98;3.03;;;;;;;;;;5071900;28;20048;-67
2022/11/08 00:16:40;;;;;;;13.23;2.80;;;;;;;;;;5071904;28;20044;-67
2022/11/08 00:19:06;;;;;;;11.68;2.97;;;;;;;;;;5072247;28;20048;-67
2022/11/08 00:21:32;;;;;;;14.05;3.35;;;;;;;;;;5071687;28;20032;-67
2022/11/08 00:23:58;;;;;;;11.98;3.05;;;;;;;;;;5072107;28;20036;-67
2022/11/08 00:26:24;;;;;;;11.00;2.53;;;;;;;;;;5072005;28;20044;-67
2022/11/08 00:28:50;;;;;;;12.85;2.60;;;;;;;;;;5071418;28;20187;-67
2022/11/08 00:31:16;;;;;;;12.60;2.83;;;;;;;;;;5071512;28;20041;-67
2022/11/08 00:33:42;;;;;;;12.65;3.15;;;;;;;;;;5071927;28;20036;-67
2022/11/08 00:36:08;;;;;;;7.85;2.85;;;;;;;;;;5071695;28;20070;-67
2022/11/08 00:38:34;;;;;;;9.25;3.08;;;;;;;;;;5071559;28;20098;-67
2022/11/08 00:41:00;;;;;;;12.80;2.90;;;;;;;;;;5071518;28;20047;-67
2022/11/08 00:43:26;;;;;;;11.85;3.08;;;;;;;;;;5071437;28;20036;-67
2022/11/08 00:45:52;;;;;;;13.95;3.85;;;;;;;;;;5071530;28;20044;-67
2022/11/08 00:48:18;;;;;;;11.95;2.90;;;;;;;;;;5071791;28;20051;-67
2022/11/08 00:50:44;;;;;;;16.48;3.22;;;;;;;;;;5071332;28;20372;-67
2022/11/08 00:53:10;;;;;;;10.60;2.70;;;;;;;;;;5071674;28;20098;-67
2022/11/08 00:55:36;;;;;;;15.30;2.83;;;;;;;;;;5071736;28;20040;-67
2022/11/08 00:58:02;;;;;;;12.88;3.03;;;;;;;;;;5071178;28;20051;-67
2022/11/08 01:00:28;;;;;;;9.15;2.80;;;;;;;;;;5071289;28;20040;-67
2022/11/08 01:05:40;;;;;;;13.20;3.50;;;;;;;;;;5071210;28;20405;-67
2022/11/08 01:08:06;;;;;;;10.63;3.20;;;;;;;;;;5071387;28;20119;-67
2022/11/08 01:10:32;;;;;;;23.70;3.22;;;;;;;;;;5071274;28;20182;-67
2022/11/08 01:12:58;;;;;;;13.27;2.97;;;;;;;;;;5071162;28;20032;-67
2022/11/08 01:15:24;;;;;;;14.75;2.72;;;;;;;;;;5071628;28;20506;-67
2022/11/08 01:17:50;;;;;;;14.77;3.22;;;;;;;;;;5071149;28;20043;-67
2022/11/08 01:20:16;;;;;;;11.15;2.72;;;;;;;;;;5071068;28;20036;-67
2022/11/08 01:22:42;;;;;;;13.18;2.95;;;;;;;;;;5071511;28;20585;-67
2022/11/08 01:25:08;;;;;;;12.20;3.42;;;;;;;;;;5071477;28;20037;-67
2022/11/08 01:27:34;;;;;;;11.30;2.97;;;;;;;;;;5070639;28;20047;-67
2022/11/08 01:30:00;;;;;;;9.32;2.80;;;;;;;;;;5071258;28;20127;-67
2022/11/08 01:32:26;;;;;;;12.60;3.35;;;;;;;;;;5071075;28;20097;-67
2022/11/08 01:34:52;;;;;;;9.95;2.97;;;;;;;;;;5070776;28;20045;-67
2022/11/08 01:37:18;;;;;;;9.52;2.90;;;;;;;;;;5071165;28;20132;-67
2022/11/08 01:39:44;;;;;;;11.73;2.72;;;;;;;;;;5070686;28;20056;-67
2022/11/08 01:42:10;;;;;;;10.48;2.60;;;;;;;;;;5071113;28;20036;-67
2022/11/08 01:44:57;;;;;;;11.13;2.53;;;;;;;;;;5070556;28;20037;-67
2022/11/08 01:47:23;;;;;;;7.97;2.65;;;;;;;;;;5070752;28;20052;-67
2022/11/08 01:49:50;;;;;;;9.77;2.72;;;;;;;;;;5070649;28;20076;-67
2022/11/08 01:52:22;;;;;;;7.78;2.67;;;;;;;;;;5070869;28;20101;-67
2022/11/08 01:54:48;;;;;;;10.38;2.78;;;;;;;;;;5071007;28;20048;-67
2022/11/08 01:57:17;;;;;;;9.90;3.03;;;;;;;;;;5070511;28;20098;-67
2022/11/08 01:59:44;;;;;;;12.60;3.75;;;;;;;;;;5070569;28;20120;-67
2022/11/08 02:02:10;;;;;;;10.18;2.92;;;;;;;;;;5071048;28;20079;-67
2022/11/08 02:04:37;;;;;;;10.68;2.35;;;;;;;;;;5070610;28;20033;-67
2022/11/08 02:07:05;;;;;;;15.93;2.97;;;;;;;;;;5070948;28;20437;-67
2022/11/08 02:09:31;;;;;;;11.20;2.95;;;;;;;;;;5070950;28;20132;-67
2022/11/08 02:11:58;;;;;;;13.43;3.10;;;;;;;;;;5070570;28;20040;-67
2022/11/08 02:14:24;;;;;;;7.13;2.50;;;;;;;;;;5070809;28;20041;-67
2022/11/08 02:16:50;;;;;;;13.68;3.00;;;;;;;;;;5070593;28;20044;-67
2022/11/08 02:19:19;;;;;;;17.13;3.38;;;;;;;;;;5070407;28;20044;-67
2022/11/08 02:22:06;;;;;;;13.05;3.17;;;;;;;;;;5074492;28;20724;-67
2022/11/08 02:24:32;;;;;;;14.38;3.63;;;;;;;;;;5074329;28;20093;-67
2022/11/08 02:26:59;;;;;;;15.02;3.45;;;;;;;;;;5074059;28;20094;-67
2022/11/08 02:29:30;;;;;;;10.93;3.03;;;;;;;;;;5072606;28;20416;-67
2022/11/08 02:31:57;;;;;;;10.43;3.25;;;;;;;;;;5074199;28;20501;-67
2022/11/08 02:34:25;;;;;;;11.80;2.80;;;;;;;;;;5073603;28;20040;-67
2022/11/08 02:36:51;;;;;;;11.00;3.00;;;;;;;;;;5074022;28;20040;-67
2022/11/08 02:39:17;;;;;;;13.00;3.30;;;;;;;;;;5073536;28;20481;-67
2022/11/08 02:41:43;;;;;;;11.85;3.72;;;;;;;;;;5073327;28;20075;-67
2022/11/08 02:44:09;;;;;;;12.43;2.80;;;;;;;;;;5073675;28;20048;-67
2022/11/08 02:46:36;;;;;;;16.52;2.97;;;;;;;;;;5073954;28;20040;-67
2022/11/08 02:49:02;;;;;;;11.07;3.13;;;;;;;;;;5073519;28;20553;-67
2022/11/08 02:51:28;;;;;;;11.25;3.13;;;;;;;;;;5073754;28;20063;-67
2022/11/08 02:53:53;;;;;;;12.38;3.47;;;;;;;;;;5073532;28;20457;-67
2022/11/08 02:56:20;;;;;;;13.30;3.05;;;;;;;;;;5073296;28;20412;-67
2022/11/08 02:58:46;;;;;;;8.73;3.17;;;;;;;;;;5073089;28;20170;-67
2022/11/08 03:01:12;;;;;;;11.90;3.00;;;;;;;;;;5073606;28;20076;-67
2022/11/08 03:03:38;;;;;;;7.43;2.53;;;;;;;;;;5073390;28;20037;-67
2022/11/08 03:06:04;;;;;;;11.60;2.90;;;;;;;;;;5073415;28;20036;-67
2022/11/08 03:08:30;;;;;;;11.25;3.05;;;;;;;;;;5073458;28;20047;-67
2022/11/08 03:10:56;;;;;;;11.57;3.33;;;;;;;;;;5073424;28;20467;-67
2022/11/08 03:13:22;;;;;;;11.95;2.95;;;;;;;;;;5073099;28;20040;-67
2022/11/08 03:15:48;;;;;;;11.20;3.72;;;;;;;;;;5073563;28;20083;-67
2022/11/08 03:18:14;;;;;;;15.10;3.50;;;;;;;;;;5073362;28;20523;-67
2022/11/08 03:20:40;;;;;;;13.85;3.22;;;;;;;;;;5072597;28;20036;-67
2022/11/08 03:23:06;;;;;;;11.52;3.20;;;;;;;;;;5073032;28;20037;-67
2022/11/08 03:25:32;;;;;;;12.48;2.70;;;;;;;;;;5073159;28;20096;-67
2022/11/08 03:28:02;;;;;;;12.65;3.60;;;;;;;;;;5072879;28;20102;-67
2022/11/08 03:30:28;;;;;;;10.85;3.20;;;;;;;;;;5072540;28;20040;-67
2022/11/08 03:32:54;;;;;;;11.60;3.30;;;;;;;;;;5072312;28;20638;-67
2022/11/08 03:35:20;;;;;;;12.82;3.50;;;;;;;;;;5072675;28;20689;-67
2022/11/08 03:37:50;;;;;;;18.13;4.15;;;;;;;;;;5072678;28;20080;-67
2022/11/08 03:40:17;;;;;;;11.48;3.08;;;;;;;;;;5072826;28;20040;-67
2022/11/08 03:42:43;;;;;;;14.02;3.38;;;;;;;;;;5072516;28;20066;-67
2022/11/08 03:45:10;;;;;;;8.18;2.80;;;;;;;;;;5072916;28;20032;-67
2022/11/08 03:47:43;;;;;;;14.50;2.83;;;;;;;;;;5072896;28;20052;-67
2022/11/08 03:50:10;;;;;;;8.65;2.92;;;;;;;;;;5072385;28;20048;-67
2022/11/08 03:52:55;;;;;;;8.50;2.85;;;;;;;;;;5072723;28;20494;-67
2022/11/08 03:55:22;;;;;;;10.40;3.33;;;;;;;;;;5072671;28;20079;-67
2022/11/08 03:57:49;;;;;;;14.40;3.20;;;;;;;;;;5072200;28;20120;-67
2022/11/08 04:00:16;;;;;;;8.68;2.80;;;;;;;;;;5072378;28;20451;-67
2022/11/08 04:02:43;;;;;;;10.40;2.78;;;;;;;;;;5072425;28;20123;-67
2022/11/08 04:05:09;;;;;;;16.55;3.10;;;;;;;;;;5071997;28;20089;-67
2022/11/08 04:07:35;;;;;;;9.48;2.53;;;;;;;;;;5072395;28;20085;-67
2022/11/08 04:10:02;;;;;;;11.05;3.47;;;;;;;;;;5072384;28;20060;-67
2022/11/08 04:15:15;;;;;;;6.50;2.63;;;;;;;;;;5072253;28;20446;-67
2022/11/08 04:23:11;;;;;;;12.10;4.45;;;;;;;;;;5072024;28;20495;-67
2022/11/08 04:25:37;;;;;;;7.13;2.70;;;;;;;;;;5071528;28;20041;-67
2022/11/08 04:28:03;;;;;;;9.43;3.20;;;;;;;;;;5072049;28;20047;-67
2022/11/08 04:30:30;;;;;;;11.73;3.22;;;;;;;;;;5071680;28;20521;-67
2022/11/08 04:32:56;;;;;;;7.10;2.60;;;;;;;;;;5071144;28;20063;-67
2022/11/08 04:35:22;;;;;;;8.68;2.80;;;;;;;;;;5071753;28;20403;-67
2022/11/08 04:37:48;;;;;;;10.43;2.72;;;;;;;;;;5071389;28;20131;-67
2022/11/08 04:40:14;;;;;;;8.30;2.25;;;;;;;;;;5070731;28;20044;-67
2022/11/08 04:42:43;;;;;;;9.45;2.85;;;;;;;;;;5071341;28;20427;-67
2022/11/08 04:45:10;;;;;;;9.07;2.50;;;;;;;;;;5071709;28;20487;-67
2022/11/08 04:47:36;;;;;;;8.82;2.92;;;;;;;;;;5071347;28;20040;-67
2022/11/08 04:50:02;;;;;;;9.05;2.53;;;;;;;;;;5071696;28;20047;-67
2022/11/08 04:52:28;;;;;;;11.02;2.38;;;;;;;;;;5071714;28;20041;-67
2022/11/08 04:54:54;;;;;;;11.52;2.42;;;;;;;;;;5071235;28;20036;-67
2022/11/08 04:57:20;;;;;;;11.32;2.70;;;;;;;;;;5071682;28;20582;-67
2022/11/08 04:59:46;;;;;;;7.20;2.50;;;;;;;;;;5071363;28;20083;-67
2022/11/08 05:02:12;;;;;;;6.03;2.22;;;;;;;;;;5071234;28;20041;-67
2022/11/08 05:04:38;;;;;;;9.10;2.55;;;;;;;;;;5071626;28;20037;-67
2022/11/08 05:07:04;;;;;;;10.13;2.75;;;;;;;;;;5071359;28;20041;-67
2022/11/08 05:09:30;;;;;;;10.70;2.30;;;;;;;;;;5071062;28;20426;-67
2022/11/08 05:11:56;;;;;;;9.00;3.17;;;;;;;;;;5071266;28;20045;-67
2022/11/08 05:14:22;;;;;;;9.80;2.88;;;;;;;;;;5071404;28;20044;-67
2022/11/08 05:16:48;;;;;;;10.95;2.50;;;;;;;;;;5071304;28;20048;-67
2022/11/08 05:23:22;;;;;;;9.32;3.03;;;;;;;;;;5070828;28;20047;-67
2022/11/08 05:24:45;;;;;;;9.40;2.40;;;;;;;;;;5070845;28;20037;-67
2022/11/08 05:27:11;;;;;;;4.30;2.00;;;;;;;;;;5071216;28;20040;-67
2022/11/08 05:29:37;;;;;;;7.25;2.30;;;;;;;;;;5070879;28;20040;-67
2022/11/08 05:32:03;;;;;;;11.27;2.95;;;;;;;;;;5070727;28;20045;-67
2022/11/08 05:34:29;;;;;;;9.57;2.63;;;;;;;;;;5071090;28;20038;-67
2022/11/08 05:36:55;;;;;;;10.93;2.13;;;;;;;;;;5071013;28;20037;-67
2022/11/08 05:39:21;;;;;;;9.18;2.78;;;;;;;;;;5070359;28;20044;-67
2022/11/08 05:41:47;;;;;;;8.80;2.72;;;;;;;;;;5071144;28;20062;-67
2022/11/08 05:44:13;;;;;;;5.13;2.22;;;;;;;;;;5071196;28;20037;-67
2022/11/08 05:46:39;;;;;;;6.82;1.90;;;;;;;;;;5070803;28;20029;-67
2022/11/08 05:49:05;;;;;;;6.60;2.20;;;;;;;;;;5071242;28;20045;-67
2022/11/08 05:51:31;;;;;;;7.47;2.35;;;;;;;;;;5071043;28;20041;-67
2022/11/08 05:53:58;;;;;;;8.38;2.55;;;;;;;;;;5070467;28;20036;-67
2022/11/08 05:56:24;;;;;;;8.77;2.60;;;;;;;;;;5074720;28;20127;-67
2022/11/08 05:58:50;;;;;;;15.25;5.65;;;;;;;;;;5074705;28;20412;-67
2022/11/08 06:01:17;;;;;;;8.88;2.10;;;;;;;;;;5074377;28;20132;-67
2022/11/08 06:03:43;;;;;;;8.38;2.60;;;;;;;;;;5074761;28;20495;-67
2022/11/08 06:06:14;;;;;;;8.18;2.75;;;;;;;;;;5074610;28;20036;-67
2022/11/08 06:08:40;;;;;;;9.90;2.63;;;;;;;;;;5074401;28;20036;-67
2022/11/08 06:11:08;;;;;;;10.38;2.88;;;;;;;;;;5074456;28;20040;-67
2022/11/08 06:13:34;;;;;;;10.95;2.42;;;;;;;;;;5074474;28;20045;-67
2022/11/08 06:16:04;;;;;;;4.05;2.08;;;;;;;;;;5074430;28;20465;-67
2022/11/08 06:18:31;;;;;;;5.93;2.42;;;;;;;;;;5074153;28;20123;-67
2022/11/08 06:20:58;;;;;;;9.90;2.70;;;;;;;;;;5074489;28;20517;-67
2022/11/08 06:23:24;;;;;;;7.88;2.17;;;;;;;;;;5074137;28;20088;-67
2022/11/08 06:25:50;;;;;;;7.90;2.40;;;;;;;;;;5074105;28;20115;-67
2022/11/08 06:28:16;;;;;;;8.07;2.67;;;;;;;;;;5074195;28;20470;-67
2022/11/08 06:30:42;;;;;;;8.07;2.80;;;;;;;;;;5074222;28;20044;-67
2022/11/08 06:33:08;;;;;;;11.00;3.25;;;;;;;;;;5073713;28;20631;-67
2022/11/08 06:35:35;;;;;;;10.55;3.30;;;;;;;;;;5074123;28;20040;-67
2022/11/08 06:38:01;;;;;;;7.70;2.85;;;;;;;;;;5073803;28;20053;-67
2022/11/08 06:40:27;;;;;;;7.03;3.05;;;;;;;;;;5073516;28;20049;-67
2022/11/08 06:42:53;;;;;;;12.18;2.88;;;;;;;;;;5073570;28;20040;-67
2022/11/08 06:45:20;;;;;;;9.65;3.10;;;;;;;;;;5073980;28;20170;-67
2022/11/08 06:47:46;;;;;;;10.85;3.10;;;;;;;;;;5073587;28;20048;-67
2022/11/08 06:50:12;;;;;;;8.43;3.28;;;;;;;;;;5073747;28;20040;-67
2022/11/08 06:52:39;;;;;;;11.85;3.58;;;;;;;;;;5073615;28;20040;-67
2022/11/08 06:55:05;;;;;;;10.65;2.90;;;;;;;;;;5073216;28;20377;-67
2022/11/08 06:57:32;;;;;;;9.88;3.38;;;;;;;;;;5072252;28;20375;-66
2022/11/08 06:59:58;;;;;;;7.90;3.15;;;;;;;;;;5071937;28;20508;-65
2022/11/08 07:02:24;;;;;;;10.20;3.30;;;;;;;;;;5072890;28;20072;-66
2022/11/08 07:04:50;;;;;;;8.25;3.20;;;;;;;;;;5073217;28;20076;-66
2022/11/08 07:07:16;;;;;;;13.68;3.30;;;;;;;;;;5072412;28;20470;-66
2022/11/08 07:09:42;;;;;;;10.20;3.60;;;;;;;;;;5070849;28;20040;-69
2022/11/08 07:12:08;;;;;;;10.23;3.15;;;;;;;;;;5071671;28;20395;-71
2022/11/08 07:14:34;;;;;;;6.30;3.38;;;;;;;;;;5071789;28;20047;-67
2022/11/08 07:17:01;;;;;;;10.20;2.83;;;;;;;;;;5071214;28;20029;-68
2022/11/08 07:19:27;;;;;;;8.55;3.67;;;;;;;;;;5071053;28;20044;-67
2022/11/08 07:21:53;;;;;;;7.70;2.75;;;;;;;;;;5063721;28;20047;-67
2022/11/08 07:24:19;;;;;;;8.85;2.67;;;;;;;;;;5068550;28;20037;-67
2022/11/08 07:26:45;;;;;;;7.57;2.90;;;;;;;;;;5065102;28;20063;-66
2022/11/08 07:29:11;;;;;;;7.82;3.15;;;;;;;;;;5070181;28;20094;-66
2022/11/08 07:31:37;;;;;;;7.80;3.00;;;;;;;;;;5070402;28;20041;-66
2022/11/08 07:34:03;;;;;;;10.93;3.03;;;;;;;;;;5070336;28;20044;-65
2022/11/08 07:36:29;;;;;;;7.97;2.75;;;;;;;;;;5042202;28;20048;-63
2022/11/08 07:38:55;;;;;;;3.50;2.10;;;;;;;;;;5070005;28;20053;-63
2022/11/08 07:41:21;;;;;;;10.38;2.88;;;;;;;;;;5070801;28;20090;-63
2022/11/08 07:43:48;;;;;;;7.80;3.08;;;;;;;;;;5070559;28;20726;-61
2022/11/08 07:46:14;;;;;;;5.03;2.33;;;;;;;;;;5070664;28;20052;-63
2022/11/08 07:48:40;;;;;;;8.93;2.50;;;;;;;;;;5070971;28;20044;-60
2022/11/08 07:51:06;;;;;;;6.60;2.58;;;;;;;;;;5071190;28;20079;-62
2022/11/08 07:53:32;;;;;;;8.60;2.60;;;;;;;;;;5070106;28;20493;-62
2022/11/08 07:55:58;;;;;;;7.20;3.10;;;;;;;;;;5070458;28;20040;-62
2022/11/08 07:58:24;;;;;;;7.60;2.45;;;;;;;;;;5071424;28;20513;-62
2022/11/08 08:00:50;;;;;;;7.90;2.78;;;;;;;;;;5070560;28;20036;-67
2022/11/08 08:03:16;;;;;;;4.85;2.42;;;;;;;;;;5068648;28;20131;-67
2022/11/08 08:05:43;;;;;;;5.57;2.63;;;;;;;;;;5070342;28;20044;-67
2022/11/08 08:08:11;;;;;;;8.05;2.72;;;;;;;;;;5068279;28;20044;-69
2022/11/08 08:10:37;;;;;;;8.65;2.53;;;;;;;;;;5068469;28;20072;-67
2022/11/08 08:13:05;;;;;;;8.02;2.67;;;;;;;;;;5069621;28;20451;-65
2022/11/08 08:15:31;;;;;;;6.38;3.17;;;;;;;;;;5068988;28;20056;-66
2022/11/08 08:17:59;;;;;;;13.57;3.00;;;;;;;;;;5068937;28;20044;-66
2022/11/08 08:20:25;;;;;;;6.32;2.60;;;;;;;;;;5069282;28;20101;-67
2022/11/08 08:22:51;;;;;;;5.53;2.10;;;;;;;;;;5069801;28;20036;-67
2022/11/08 08:25:18;;;;;;;8.60;2.90;;;;;;;;;;5070443;28;20032;-68
2022/11/08 08:27:47;;;;;;;9.48;2.80;;;;;;;;;;5069843;28;20098;-66
2022/11/08 08:30:14;;;;;;;6.05;3.17;;;;;;;;;;5070482;28;20526;-67
2022/11/08 08:32:40;;;;;;;5.40;2.60;;;;;;;;;;5070267;28;20040;-67
2022/11/08 08:35:06;;;;;;;7.93;2.50;;;;;;;;;;5070004;28;20536;-67
2022/11/08 08:37:32;;;;;;;10.55;2.90;;;;;;;;;;5067827;28;20044;-67
2022/11/08 08:39:58;;;;;;;3.88;2.38;;;;;;;;;;5070253;28;20105;-66
2022/11/08 08:42:24;;;;;;;7.25;2.38;;;;;;;;;;5070470;28;20037;-66
2022/11/08 08:44:50;;;;;;;7.03;2.55;;;;;;;;;;5069541;28;20037;-68
2022/11/08 08:47:16;;;;;;;5.32;2.60;;;;;;;;;;5059815;28;20043;-67
2022/11/08 08:49:42;;;;;;;5.68;2.17;;;;;;;;;;5068807;28;20181;-67
2022/11/08 08:52:08;;;;;;;4.80;2.20;;;;;;;;;;5069536;28;20047;-66
2022/11/08 08:54:34;;;;;;;4.82;2.22;;;;;;;;;;5068658;28;20045;-65
2022/11/08 08:57:00;;;;;;;6.95;2.13;;;;;;;;;;5067407;28;20050;-67
2022/11/08 08:59:27;;;;;;;4.68;2.17;;;;;;;;;;5069271;28;20052;-66
2022/11/08 09:01:53;;;;;;;8.20;2.35;;;;;;;;;;5050398;28;20084;-66
2022/11/08 09:04:19;;;;;;;5.95;2.38;;;;;;;;;;5063306;28;20036;-67
2022/11/08 09:06:46;;;;;;;8.15;1.92;;;;;;;;;;5067794;28;20111;-66
2022/11/08 09:09:12;;;;;;;4.07;1.90;;;;;;;;;;5070173;28;20616;-66
2022/11/08 09:11:38;;;;;;;6.85;2.22;;;;;;;;;;5069831;28;20055;-67
2022/11/08 09:14:05;;;;;;;4.82;2.47;;;;;;;;;;5069922;28;20050;-68
2022/11/08 09:16:31;;;;;;;6.72;2.10;;;;;;;;;;5068072;28;20131;-66
2022/11/08 09:18:57;;;;;;;4.63;2.05;;;;;;;;;;5070115;28;20575;-66
2022/11/08 09:21:23;;;;;;;4.72;2.20;;;;;;;;;;5068519;28;20059;-66
2022/11/08 09:23:49;;;;;;;4.13;2.25;;;;;;;;;;5069781;28;20032;-66
2022/11/08 09:26:15;;;;;;;5.65;1.98;;;;;;;;;;5068084;28;20040;-66
2022/11/08 09:28:41;;;;;;;4.70;2.00;;;;;;;;;;5069822;28;20036;-65
2022/11/08 09:31:08;;;;;;;4.47;2.20;;;;;;;;;;5073884;28;20538;-67
2022/11/08 09:33:35;;;;;;;5.57;2.25;;;;;;;;;;5069297;28;20040;-67
2022/11/08 09:36:02;;;;;;;5.05;1.95;;;;;;;;;;5071290;28;20094;-69
2022/11/08 09:38:29;;;;;;;5.95;1.80;;;;;;;;;;5072195;28;20053;-67
2022/11/08 09:41:01;;;;;;;5.40;2.17;;;;;;;;;;5073771;28;20112;-66
2022/11/08 09:43:42;;;;;;;4.55;2.50;;;;;;;;;;5072133;28;20047;-69
2022/11/08 09:46:13;;;;;;;6.38;2.60;;;;;;;;;;5072367;28;20707;-66
2022/11/08 09:48:43;;;;;;;4.22;2.67;;;;;;;;;;5073173;28;20141;-67
2022/11/08 09:51:12;;;;;;;6.20;2.30;;;;;;;;;;5073073;28;20080;-66
2022/11/08 09:53:48;;;;;;;6.50;2.33;;;;;;;;;;5070024;28;20119;-67
2022/11/08 09:56:26;;;;;;;7.03;2.28;;;;;;;;;;5071150;28;20033;-66
2022/11/08 09:59:00;;;;;;;4.70;2.10;;;;;;;;;;5063245;28;20067;-64
2022/11/08 10:01:28;;;;;;;5.03;2.20;;;;;;;;;;5073095;28;20040;-66
2022/11/08 10:03:55;;;;;;;5.32;2.25;;;;;;;;;;5055242;28;20052;-66
2022/11/08 10:06:40;;;;;;;4.93;1.92;;;;;;;;;;5071069;28;20032;-66
2022/11/08 10:09:09;;;;;;;4.68;2.33;;;;;;;;;;5070947;28;20036;-65
2022/11/08 10:11:58;;;;;;;5.10;2.00;;;;;;;;;;5073117;28;20047;-67
2022/11/08 10:14:27;;;;;;;5.07;2.15;;;;;;;;;;5070861;28;20074;-66
2022/11/08 10:16:53;;;;;;;3.65;1.90;;;;;;;;;;5071199;28;20041;-66
2022/11/08 10:19:25;;;;;;;2.13;1.80;;;;;;;;;;5072722;28;20044;-67
2022/11/08 10:21:57;;;;;;;7.00;2.13;;;;;;;;;;5073033;28;20115;-66
2022/11/08 10:24:42;;;;;;;3.35;2.10;;;;;;;;;;5071103;28;20433;-68
2022/11/08 10:27:17;;;;;;;4.32;2.05;;;;;;;;;;5052362;28;20479;-68
2022/11/08 10:29:44;;;;;;;4.82;2.22;;;;;;;;;;5070313;28;20047;-67
2022/11/08 10:32:10;;;;;;;3.33;1.92;;;;;;;;;;5072489;28;20044;-66
2022/11/08 10:34:40;;;;;;;4.43;2.20;;;;;;;;;;5071703;28;20127;-65
2022/11/08 10:37:10;;;;;;;5.10;2.10;;;;;;;;;;5070727;28;20052;-68
2022/11/08 10:39:40;;;;;;;6.07;2.60;;;;;;;;;;5070471;28;20056;-67
2022/11/08 10:42:29;;;;;;;5.18;2.15;;;;;;;;;;5070707;28;20121;-67
2022/11/08 10:44:55;;;;;;;4.72;2.05;;;;;;;;;;5070995;28;20033;-66
2022/11/08 10:47:25;;;;;;;4.55;2.17;;;;;;;;;;5054190;28;20185;-65
2022/11/08 10:49:53;;;;;;;9.02;2.40;;;;;;;;;;5070341;28;20056;-65
2022/11/08 10:52:19;;;;;;;4.35;2.35;;;;;;;;;;5071109;28;20037;-66
2022/11/08 10:54:47;;;;;;;3.60;1.90;;;;;;;;;;5070460;28;20048;-67
2022/11/08 10:57:15;;;;;;;7.30;2.10;;;;;;;;;;5069939;28;20253;-67
2022/11/08 10:59:41;;;;;;;3.95;2.00;;;;;;;;;;5069532;28;20055;-67
2022/11/08 11:02:24;;;;;;;6.32;1.92;;;;;;;;;;5071189;28;20066;-68
2022/11/08 11:04:50;;;;;;;5.30;1.88;;;;;;;;;;5069946;28;20036;-66
2022/11/08 11:07:27;;;;;;;5.50;2.03;;;;;;;;;;5071614;28;20041;-66
2022/11/08 11:09:53;;;;;;;4.93;1.75;;;;;;;;;;5070038;28;20127;-67
2022/11/08 11:12:19;;;;;;;5.25;1.92;;;;;;;;;;5070480;28;20510;-67
2022/11/08 11:14:46;;;;;;;7.82;2.00;;;;;;;;;;5094034;28;20037;-65
2022/11/08 11:17:14;;;;;;;5.07;2.20;;;;;;;;;;5103732;28;20072;-64
2022/11/08 11:19:43;;;;;;;4.90;1.83;;;;;;;;;;5070741;28;20047;-67
2022/11/08 11:22:10;;;;;;;7.43;2.00;;;;;;;;;;5069062;28;20055;-67
2022/11/08 11:24:45;;;;;;;5.50;2.10;;;;;;;;;;5071615;28;20530;-64
2022/11/08 11:27:31;;;;;;;4.78;1.90;;;;;;;;;;5071368;28;20043;-65
2022/11/08 11:30:23;;;;;;;4.68;1.95;;;;;;;;;;5070906;28;20036;-65
2022/11/08 11:32:57;;;;;;;6.68;1.92;;;;;;;;;;5070447;28;20093;-65
2022/11/08 11:35:24;;;;;;;8.10;1.90;;;;;;;;;;5070152;28;20050;-66
2022/11/08 11:37:52;;;;;;;6.70;2.22;;;;;;;;;;5070036;28;20067;-66
2022/11/08 11:40:24;;;;;;;4.88;2.08;;;;;;;;;;5053808;28;20471;-66
2022/11/08 11:42:50;;;;;;;4.80;1.85;;;;;;;;;;5071853;28;20044;-66
2022/11/08 11:45:36;;;;;;;4.00;1.90;;;;;;;;;;5069609;28;20410;-66
2022/11/08 11:48:04;;;;;;;6.15;1.90;;;;;;;;;;5070403;28;20044;-66
2022/11/08 11:50:32;;;;;;;3.50;1.60;;;;;;;;;;5051727;28;20567;-65
2022/11/08 11:52:59;;;;;;;7.18;2.00;;;;;;;;;;5058160;28;20116;-65
2022/11/08 11:55:42;;;;;;;6.63;2.30;;;;;;;;;;5070355;28;20056;-66
2022/11/08 11:58:20;;;;;;;5.18;2.10;;;;;;;;;;5071046;28;20059;-66
2022/11/08 12:00:50;;;;;;;3.17;1.70;;;;;;;;;;5071605;28;20112;-65
2022/11/08 12:03:36;;;;;;;5.03;2.28;;;;;;;;;;5071660;28;20063;-65
2022/11/08 12:06:08;;;;;;;6.65;2.05;;;;;;;;;;5070631;28;20391;-66
2022/11/08 12:08:34;;;;;;;5.05;2.10;;;;;;;;;;5069634;28;20052;-66
2022/11/08 12:11:10;;;;;;;4.90;2.03;;;;;;;;;;5071485;28;20085;-67
2022/11/08 12:13:43;;;;;;;5.72;1.80;;;;;;;;;;5086585;28;21140;-67
2022/11/08 12:16:16;;;;;;;3.45;1.77;;;;;;;;;;5086285;28;20114;-68
2022/11/08 12:18:53;;;;;;;4.68;1.92;;;;;;;;;;5066081;28;20044;-68
2022/11/08 12:21:33;;;;;;;5.55;1.95;;;;;;;;;;5078706;28;20043;-68
2022/11/08 12:24:28;;;;;;;6.35;2.00;;;;;;;;;;5086621;28;20040;-67
2022/11/08 12:27:00;;;;;;;3.35;2.10;;;;;;;;;;5048955;28;20159;-67
2022/11/08 12:29:27;;;;;;;2.88;1.83;;;;;;;;;;5077942;28;20682;-67
2022/11/08 12:32:11;;;;;;;5.18;2.22;;;;;;;;;;5087761;28;20048;-67
2022/11/08 12:34:37;;;;;;;4.50;2.03;;;;;;;;;;5087207;28;20041;-67
2022/11/08 12:37:16;;;;;;;4.63;1.70;;;;;;;;;;5085980;28;20051;-67
2022/11/08 12:39:44;;;;;;;5.10;2.25;;;;;;;;;;5086306;28;20108;-67
2022/11/08 12:42:19;;;;;;;5.18;1.90;;;;;;;;;;5086751;28;20047;-67
2022/11/08 12:44:48;;;;;;;3.28;1.85;;;;;;;;;;5087415;28;20056;-67
2022/11/08 12:47:23;;;;;;;5.00;1.95;;;;;;;;;;5087373;28;20135;-66
2022/11/08 12:49:55;;;;;;;4.53;2.08;;;;;;;;;;5084838;28;20051;-67
2022/11/08 12:52:37;;;;;;;4.40;1.90;;;;;;;;;;5087087;28;20387;-67
2022/11/08 12:55:08;;;;;;;4.95;1.70;;;;;;;;;;5087030;28;20044;-68
2022/11/08 12:57:34;;;;;;;3.92;2.17;;;;;;;;;;5084913;28;20036;-68
2022/11/08 13:00:05;;;;;;;5.63;2.10;;;;;;;;;;5087273;28;20642;-67
2022/11/08 13:02:33;;;;;;;6.90;2.25;;;;;;;;;;5086842;28;20048;-67
2022/11/08 13:05:26;;;;;;;4.90;2.05;;;;;;;;;;5084762;28;20096;-68
2022/11/08 13:07:55;;;;;;;4.57;2.20;;;;;;;;;;5063555;28;20151;-68
2022/11/08 13:10:21;;;;;;;3.15;1.75;;;;;;;;;;5064807;28;20048;-68
2022/11/08 13:13:01;;;;;;;5.90;1.88;;;;;;;;;;5064222;28;20061;-67
2022/11/08 13:15:28;;;;;;;4.25;1.73;;;;;;;;;;5066397;28;20037;-67
2022/11/08 13:18:03;;;;;;;2.35;1.73;;;;;;;;;;5066129;28;20709;-65
2022/11/08 13:20:40;;;;;;;3.67;1.90;;;;;;;;;;5064701;28;20044;-65
2022/11/08 13:23:10;;;;;;;6.82;2.20;;;;;;;;;;5062846;28;20053;-65
2022/11/08 13:25:36;;;;;;;6.85;2.10;;;;;;;;;;5051576;28;20107;-66
2022/11/08 13:28:22;;;;;;;5.70;2.10;;;;;;;;;;5053016;28;20063;-66
2022/11/08 13:30:55;;;;;;;5.60;1.65;;;;;;;;;;5052337;28;20072;-67
2022/11/08 13:33:27;;;;;;;6.45;1.77;;;;;;;;;;5051035;28;20040;-68
2022/11/08 13:35:56;;;;;;;4.05;1.58;;;;;;;;;;5053169;28;20068;-66
2022/11/08 13:38:25;;;;;;;3.90;1.60;;;;;;;;;;5051774;28;20529;-66
2022/11/08 13:41:08;;;;;;;4.57;1.60;;;;;;;;;;5050771;28;20037;-66
2022/11/08 13:43:35;;;;;;;5.97;1.90;;;;;;;;;;5034615;28;20041;-67
2022/11/08 13:46:28;;;;;;;4.75;1.63;;;;;;;;;;5034356;28;20052;-67
2022/11/08 13:48:57;;;;;;;4.45;1.85;;;;;;;;;;5059331;28;20059;-68
2022/11/08 13:51:25;;;;;;;4.70;1.77;;;;;;;;;;5051420;28;20052;-69
2022/11/08 13:53:56;;;;;;;3.60;1.70;;;;;;;;;;5051174;28;20037;-68
2022/11/08 13:56:43;;;;;;;6.30;1.75;;;;;;;;;;5050653;28;20045;-68
2022/11/08 13:59:27;;;;;;;3.67;1.60;;;;;;;;;;5047493;28;20045;-68
2022/11/08 14:01:53;;;;;;;4.20;2.33;;;;;;;;;;5043771;28;20052;-67
2022/11/08 14:04:33;;;;;;;3.97;1.85;;;;;;;;;;5050685;28;20087;-67
2022/11/08 14:07:05;;;;;;;3.95;1.90;;;;;;;;;;5050800;28;20178;-67
2022/11/08 14:09:31;;;;;;;;;;;;;;;;;;5051176;28;20053;-68
2022/11/08 14:12:09;;;;;;;3.75;1.90;;;;;;;;;;5050547;28;19924;-69
2022/11/08 14:14:38;;;;;;;3.90;2.72;;;;;;;;;;5052270;28;20404;-68
2022/11/08 14:17:13;;;;;;;6.00;1.95;;;;;;;;;;5050734;28;20120;-68
2022/11/08 14:19:41;;;;;;;4.70;1.95;;;;;;;;;;5050673;28;20676;-69
2022/11/08 14:22:16;;;;;;;4.32;1.50;;;;;;;;;;5033884;28;20123;-68
2022/11/08 14:24:43;;;;;;;3.70;1.90;;;;;;;;;;5049472;28;20045;-68
2022/11/08 14:27:11;;;;;;;3.53;1.73;;;;;;;;;;5050674;28;20041;-69
2022/11/08 14:29:37;;;;;;;5.20;2.20;;;;;;;;;;5051771;28;20044;-68
2022/11/08 14:32:03;;;;;;;3.63;2.10;;;;;;;;;;5051965;28;20071;-66
2022/11/08 14:34:30;;;;;;;6.07;1.75;;;;;;;;;;5051909;28;20464;-67
2022/11/08 14:36:57;;;;;;;6.75;1.80;;;;;;;;;;5051186;28;20045;-68
2022/11/08 14:39:25;;;;;;;4.82;2.05;;;;;;;;;;5051717;28;20041;-67
2022/11/08 14:41:53;;;;;;;4.57;1.80;;;;;;;;;;5032925;28;20052;-68
2022/11/08 14:44:19;;;;;;;4.60;2.10;;;;;;;;;;5050511;28;20048;-68
2022/11/08 14:46:45;;;;;;;6.35;2.03;;;;;;;;;;5049128;28;20489;-67
2022/11/08 14:49:17;;;;;;;4.07;1.92;;;;;;;;;;5050590;28;20391;-66
2022/11/08 14:51:43;;;;;;;6.97;2.20;;;;;;;;;;5042788;28;20095;-66
2022/11/08 14:54:17;;;;;;;8.30;2.10;;;;;;;;;;5049920;28;20041;-68
2022/11/08 14:56:44;;;;;;;9.68;2.47;;;;;;;;;;5049044;28;20049;-68
2022/11/08 14:59:12;;;;;;;6.60;2.00;;;;;;;;;;5049901;28;20068;-67
2022/11/08 15:01:38;;;;;;;5.43;1.85;;;;;;;;;;5049180;28;20045;-68
2022/11/08 15:04:15;;;;;;;6.80;1.92;;;;;;;;;;5049890;28;20037;-68
2022/11/08 15:06:55;;;;;;;5.15;2.17;;;;;;;;;;5049988;28;20554;-68
2022/11/08 15:09:24;;;;;;;6.25;2.50;;;;;;;;;;5050250;28;20044;-67
2022/11/08 15:11:52;;;;;;;6.55;2.17;;;;;;;;;;5050224;28;20056;-66